createdAt,value
2019-05-20T00:02:25.893Z,64.77
2019-05-20T00:04:50.042Z,66.23
2019-05-20T00:07:20.529Z,66.97
2019-05-20T00:09:51.057Z,60.00
2019-05-20T00:12:21.509Z,56.07
2019-05-20T00:14:52.275Z,57.57
2019-05-20T00:17:22.878Z,71.60
2019-05-20T00:19:54.041Z,65.70
2019-05-20T00:22:24.438Z,67.73
2019-05-20T00:24:55.034Z,57.93
2019-05-20T00:27:25.672Z,56.57
2019-05-20T00:29:56.433Z,60.87
2019-05-20T00:32:40.205Z,53.17
2019-05-20T00:35:00.268Z,50.87
2019-05-20T00:37:30.895Z,51.07
2019-05-20T00:40:01.560Z,65.00
2019-05-20T00:42:32.127Z,57.87
2019-05-20T00:45:02.695Z,60.37
2019-05-20T00:47:33.220Z,59.27
2019-05-20T00:50:04.429Z,63.03
2019-05-20T00:52:35.067Z,61.50
2019-05-20T00:55:06.574Z,63.20
2019-05-20T00:57:37.266Z,61.77
2019-05-20T01:00:08.554Z,65.30
2019-05-20T01:02:39.250Z,70.67
2019-05-20T01:05:10.083Z,71.83
2019-05-20T01:07:41.717Z,65.43
2019-05-20T01:10:12.690Z,62.73
2019-05-20T01:12:43.191Z,65.13
2019-05-20T01:15:14.336Z,63.57
2019-05-20T01:17:44.885Z,76.97
2019-05-20T01:20:15.693Z,65.43
2019-05-20T01:22:46.122Z,56.83
2019-05-20T01:25:16.787Z,61.03
2019-05-20T01:27:47.538Z,72.03
2019-05-20T01:30:19.244Z,76.33
2019-05-20T01:32:49.802Z,67.17
2019-05-20T01:35:20.380Z,70.60
2019-05-20T01:37:51.177Z,72.33
2019-05-20T01:40:21.847Z,69.90
2019-05-20T01:42:52.424Z,64.30
2019-05-20T01:45:23.205Z,64.33
2019-05-20T01:47:53.809Z,79.93
2019-05-20T01:50:25.942Z,78.07
2019-05-20T01:52:56.411Z,72.97
2019-05-20T01:55:27.135Z,88.40
2019-05-20T01:57:57.559Z,74.40
2019-05-20T02:00:28.494Z,73.73
2019-05-20T02:02:58.975Z,80.73
2019-05-20T02:05:29.618Z,77.87
2019-05-20T02:08:00.316Z,77.33
2019-05-20T02:10:31.018Z,72.60
2019-05-20T02:13:01.694Z,79.63
2019-05-20T02:15:41.437Z,83.87
2019-05-20T02:18:11.930Z,76.23
2019-05-20T02:20:43.679Z,77.43
2019-05-20T02:23:15.212Z,83.27
2019-05-20T02:25:48.342Z,69.13
2019-05-20T02:28:18.940Z,79.03
2019-05-20T02:30:49.771Z,89.97
2019-05-20T02:33:20.330Z,84.17
2019-05-20T02:35:50.960Z,79.53
2019-05-20T02:38:21.549Z,70.00
2019-05-20T02:40:52.559Z,85.40
2019-05-20T02:43:23.181Z,87.57
2019-05-20T02:45:53.963Z,79.73
2019-05-20T02:48:24.416Z,86.17
2019-05-20T02:50:55.943Z,82.83
2019-05-20T02:53:26.485Z,83.10
2019-05-20T02:55:57.240Z,72.53
2019-05-20T02:58:27.866Z,81.17
2019-05-20T03:00:58.512Z,82.73
2019-05-20T03:03:29.108Z,79.00
2019-05-20T03:06:00.078Z,75.93
2019-05-20T03:08:30.485Z,90.67
2019-05-20T03:11:01.524Z,78.43
2019-05-20T03:13:32.052Z,66.03
2019-05-20T03:16:02.605Z,67.80
2019-05-20T03:18:33.018Z,67.23
2019-05-20T03:21:03.653Z,60.23
2019-05-20T03:23:34.422Z,65.77
2019-05-20T03:26:05.223Z,57.03
2019-05-20T03:28:35.961Z,69.50
2019-05-20T03:31:06.696Z,55.80
2019-05-20T03:33:37.321Z,62.97
2019-05-20T03:36:08.678Z,54.50
2019-05-20T03:38:39.196Z,57.63
2019-05-20T03:41:10.290Z,52.13
2019-05-20T03:43:40.979Z,49.90
2019-05-20T03:46:11.807Z,54.47
2019-05-20T03:48:42.448Z,45.53
2019-05-20T03:51:13.069Z,48.90
2019-05-20T03:53:43.572Z,45.57
2019-05-20T03:56:14.235Z,44.40
2019-05-20T03:58:44.813Z,41.37
2019-05-20T04:01:15.593Z,37.33
2019-05-20T04:03:46.204Z,47.77
2019-05-20T04:06:16.717Z,41.07
2019-05-20T04:08:47.292Z,38.97
2019-05-20T04:11:18.804Z,37.13
2019-05-20T04:13:49.220Z,36.13
2019-05-20T04:16:19.931Z,34.00
2019-05-20T04:18:54.070Z,33.60
2019-05-20T04:21:23.430Z,36.67
2019-05-20T04:23:54.041Z,33.33
2019-05-20T04:26:24.681Z,28.27
2019-05-20T04:28:55.623Z,30.13
2019-05-20T04:31:26.185Z,32.23
2019-05-20T04:33:56.888Z,28.40
2019-05-20T04:36:27.851Z,27.90
2019-05-20T04:38:58.456Z,26.60
2019-05-20T04:41:29.100Z,36.20
2019-05-20T04:43:59.831Z,23.98
2019-05-20T04:46:30.549Z,23.73
2019-05-20T04:49:01.100Z,23.30
2019-05-20T04:51:31.704Z,24.13
2019-05-20T04:54:02.225Z,24.43
2019-05-20T04:56:32.772Z,23.80
2019-05-20T04:59:03.215Z,21.45
2019-05-20T05:01:34.039Z,22.20
2019-05-20T05:04:04.720Z,25.27
2019-05-20T05:06:35.310Z,19.87
2019-05-20T05:09:07.613Z,20.20
2019-05-20T05:11:38.515Z,20.02
2019-05-20T05:14:10.368Z,24.20
2019-05-20T05:16:40.887Z,24.15
2019-05-20T05:19:11.365Z,18.27
2019-05-20T05:21:42.046Z,17.23
2019-05-20T05:24:12.778Z,17.32
2019-05-20T05:26:43.590Z,19.98
2019-05-20T05:29:14.362Z,23.10
2019-05-20T05:31:45.222Z,18.07
2019-05-20T05:34:16.148Z,15.55
2019-05-20T05:36:46.780Z,22.40
2019-05-20T05:39:17.339Z,31.57
2019-05-20T05:41:49.030Z,13.40
2019-05-20T05:44:19.920Z,14.35
2019-05-20T05:46:50.601Z,12.13
2019-05-20T05:49:21.210Z,16.05
2019-05-20T05:51:51.940Z,19.52
2019-05-20T05:54:22.537Z,16.73
2019-05-20T05:56:53.330Z,18.67
2019-05-20T05:59:23.999Z,15.90
2019-05-20T06:01:54.589Z,19.20
2019-05-20T06:04:25.302Z,21.02
2019-05-20T06:06:56.409Z,15.65
2019-05-20T06:09:27.138Z,18.17
2019-05-20T06:11:57.858Z,15.20
2019-05-20T06:14:28.306Z,12.93
2019-05-20T06:17:00.039Z,14.35
2019-05-20T06:19:30.697Z,17.50
2019-05-20T06:22:01.776Z,12.20
2019-05-20T06:24:33.078Z,12.10
2019-05-20T06:27:03.682Z,13.35
2019-05-20T06:29:34.388Z,17.48
2019-05-20T06:32:05.121Z,22.80
2019-05-20T06:34:35.909Z,15.18
2019-05-20T06:37:08.669Z,14.73
2019-05-20T06:39:39.409Z,21.15
2019-05-20T06:42:10.111Z,12.45
2019-05-20T06:44:52.118Z,18.65
2019-05-20T06:47:13.322Z,14.87
2019-05-20T06:49:43.802Z,11.97
2019-05-20T06:52:14.584Z,18.77
2019-05-20T06:54:45.140Z,16.10
2019-05-20T06:57:15.820Z,13.20
2019-05-20T06:59:46.448Z,12.82
2019-05-20T07:02:17.262Z,23.87
2019-05-20T07:04:48.181Z,11.50
2019-05-20T07:07:21.190Z,13.68
2019-05-20T07:09:51.433Z,12.00
2019-05-20T07:12:22.143Z,13.62
2019-05-20T07:14:52.824Z,13.45
2019-05-20T07:17:23.437Z,21.45
2019-05-20T07:19:54.117Z,12.23
2019-05-20T07:22:24.944Z,20.77
2019-05-20T07:24:55.778Z,10.03
2019-05-20T07:27:26.514Z,15.58
2019-05-20T07:29:57.168Z,14.98
2019-05-20T07:32:28.430Z,12.00
2019-05-20T07:34:59.150Z,14.80
2019-05-20T07:37:30.821Z,16.25
2019-05-20T07:40:01.456Z,14.23
2019-05-20T07:42:32.301Z,12.13
2019-05-20T07:45:03.439Z,13.18
2019-05-20T07:47:34.483Z,18.87
2019-05-20T07:50:05.381Z,20.02
2019-05-20T07:52:36.107Z,13.93
2019-05-20T07:55:08.272Z,14.35
2019-05-20T07:57:41.273Z,14.20
2019-05-20T08:00:12.224Z,14.23
2019-05-20T08:02:42.995Z,13.88
2019-05-20T08:05:13.779Z,19.37
2019-05-20T08:07:51.871Z,12.10
2019-05-20T08:10:17.089Z,16.37
2019-05-20T08:12:47.762Z,15.10
2019-05-20T08:15:18.341Z,12.13
2019-05-20T08:17:49.105Z,13.70
2019-05-20T08:20:20.949Z,11.05
2019-05-20T08:22:51.791Z,18.23
2019-05-20T08:25:22.841Z,11.57
2019-05-20T08:27:53.664Z,8.25
2019-05-20T08:30:33.051Z,13.00
2019-05-20T08:33:04.030Z,15.55
2019-05-20T08:35:34.785Z,11.70
2019-05-20T08:38:05.625Z,12.10
2019-05-20T08:40:36.240Z,14.87
2019-05-20T08:43:06.968Z,12.63
2019-05-20T08:45:37.508Z,6.47
2019-05-20T08:48:08.363Z,16.20
2019-05-20T08:50:38.907Z,10.40
2019-05-20T08:53:09.921Z,15.03
2019-05-20T08:55:41.030Z,16.35
2019-05-20T08:58:11.886Z,11.70
2019-05-20T09:00:42.541Z,12.73
2019-05-20T09:03:13.134Z,21.02
2019-05-20T09:05:43.673Z,15.98
2019-05-20T09:08:14.612Z,14.13
2019-05-20T09:10:45.199Z,14.95
2019-05-20T09:13:16.084Z,11.65
2019-05-20T09:15:46.820Z,17.05
2019-05-20T09:18:17.486Z,11.65
2019-05-20T09:20:48.161Z,13.60
2019-05-20T09:23:18.980Z,11.20
2019-05-20T09:25:49.644Z,14.45
2019-05-20T09:28:20.703Z,13.15
2019-05-20T09:30:51.643Z,12.65
2019-05-20T09:33:23.941Z,15.55
2019-05-20T09:35:54.968Z,7.17
2019-05-20T09:38:26.023Z,13.70
2019-05-20T09:40:56.711Z,13.03
2019-05-20T09:43:27.522Z,9.55
2019-05-20T09:46:07.685Z,10.78
2019-05-20T09:48:31.256Z,8.05
2019-05-20T09:51:01.969Z,8.78
2019-05-20T09:53:32.849Z,12.13
2019-05-20T09:56:03.604Z,12.13
2019-05-20T09:58:37.411Z,11.22
2019-05-20T10:01:08.313Z,10.53
2019-05-20T10:03:39.172Z,25.57
2019-05-20T10:06:10.630Z,15.03
2019-05-20T10:08:45.031Z,9.18
2019-05-20T10:11:13.937Z,17.37
2019-05-20T10:13:45.813Z,13.80
2019-05-20T10:16:16.618Z,11.22
2019-05-20T10:18:47.267Z,14.05
2019-05-20T10:21:17.875Z,18.80
2019-05-20T10:23:48.751Z,11.10
2019-05-20T10:26:20.567Z,11.45
2019-05-20T10:28:51.430Z,17.90
2019-05-20T10:31:22.284Z,14.65
2019-05-20T10:33:52.874Z,12.73
2019-05-20T10:36:23.420Z,12.82
2019-05-20T10:38:58.996Z,10.48
2019-05-20T10:41:29.397Z,13.75
2019-05-20T10:43:58.758Z,9.60
2019-05-20T10:46:29.179Z,11.35
2019-05-20T10:49:00.062Z,9.63
2019-05-20T10:51:30.630Z,13.65
2019-05-20T10:54:01.407Z,8.00
2019-05-20T10:56:32.343Z,10.78
2019-05-20T10:59:04.417Z,13.05
2019-05-20T11:01:35.366Z,17.42
2019-05-20T11:04:06.078Z,19.30
2019-05-20T11:06:37.605Z,8.18
2019-05-20T11:09:14.069Z,14.50
2019-05-20T11:11:41.045Z,12.85
2019-05-20T11:14:11.935Z,9.28
2019-05-20T11:16:42.579Z,9.28
2019-05-20T11:19:13.380Z,10.53
2019-05-20T11:21:43.898Z,12.25
2019-05-20T11:24:14.713Z,14.58
2019-05-20T11:26:45.686Z,9.55
2019-05-20T11:29:16.458Z,13.30
2019-05-20T11:31:47.200Z,9.43
2019-05-20T11:34:17.925Z,13.03
2019-05-20T11:36:48.590Z,12.90
2019-05-20T11:39:32.319Z,9.70
2019-05-20T11:41:53.969Z,15.03
2019-05-20T11:44:24.321Z,15.20
2019-05-20T11:46:55.114Z,11.43
2019-05-20T11:49:29.083Z,15.90
2019-05-20T11:51:58.124Z,13.38
2019-05-20T11:54:28.953Z,10.10
2019-05-20T11:56:59.575Z,13.60
2019-05-20T11:59:30.312Z,13.60
2019-05-20T12:02:03.852Z,11.90
2019-05-20T12:04:33.242Z,15.85
2019-05-20T12:07:04.181Z,13.55
2019-05-20T12:09:48.872Z,13.58
2019-05-20T12:12:08.222Z,11.33
2019-05-20T12:14:39.003Z,14.35
2019-05-20T12:17:09.750Z,12.65
2019-05-20T12:19:40.589Z,10.82
2019-05-20T12:22:11.414Z,15.45
2019-05-20T12:24:42.200Z,27.32
2019-05-20T12:27:12.837Z,29.10
2019-05-20T12:29:43.733Z,30.95
2019-05-20T12:32:14.360Z,39.70
2019-05-20T12:34:45.240Z,34.90
2019-05-20T12:37:15.910Z,33.92
2019-05-20T12:39:46.764Z,44.30
2019-05-20T12:42:17.449Z,30.80
2019-05-20T12:44:48.349Z,21.07
2019-05-20T12:47:18.886Z,23.67
2019-05-20T12:49:49.475Z,24.65
2019-05-20T12:52:20.103Z,22.55
2019-05-20T12:55:05.976Z,25.43
2019-05-20T12:57:23.340Z,24.98
2019-05-20T12:59:55.814Z,17.17
2019-05-20T13:02:27.486Z,20.72
2019-05-20T13:04:58.500Z,25.37
2019-05-20T13:07:29.247Z,21.10
2019-05-20T13:10:03.108Z,18.60
2019-05-20T13:12:32.863Z,23.27
2019-05-20T13:15:04.072Z,20.97
2019-05-20T13:17:34.928Z,24.17
2019-05-20T13:20:06.172Z,24.27
2019-05-20T13:22:36.717Z,20.57
2019-05-20T13:25:08.133Z,31.68
2019-05-20T13:27:38.798Z,27.93
2019-05-20T13:30:10.711Z,26.77
2019-05-20T13:32:41.331Z,28.17
2019-05-20T13:35:12.343Z,29.72
2019-05-20T13:37:43.159Z,27.87
2019-05-20T13:40:14.564Z,26.40
2019-05-20T13:42:45.358Z,28.10
2019-05-20T13:45:16.507Z,25.52
2019-05-20T13:47:47.451Z,31.87
2019-05-20T13:50:18.444Z,29.42
2019-05-20T13:52:49.118Z,29.95
2019-05-20T13:55:19.868Z,32.08
2019-05-20T13:57:50.811Z,34.30
2019-05-20T14:00:22.232Z,38.13
2019-05-20T14:02:52.846Z,38.20
2019-05-20T14:05:23.694Z,39.70
2019-05-20T14:07:54.415Z,29.07
2019-05-20T14:10:25.384Z,29.23
2019-05-20T14:12:56.272Z,26.07
2019-05-20T14:15:27.007Z,30.80
2019-05-20T14:17:58.133Z,31.05
2019-05-20T14:20:30.353Z,27.02
2019-05-20T14:23:00.913Z,27.00
2019-05-20T14:25:31.620Z,30.75
2019-05-20T14:28:02.326Z,27.82
2019-05-20T14:30:33.222Z,25.30
2019-05-20T14:33:04.052Z,29.50
2019-05-20T14:35:35.078Z,30.05
2019-05-20T14:38:05.623Z,27.93
2019-05-20T14:40:36.658Z,29.20
2019-05-20T14:43:07.401Z,26.05
2019-05-20T14:45:38.211Z,21.70
2019-05-20T14:48:08.966Z,21.55
2019-05-20T14:50:39.617Z,17.12
2019-05-20T14:53:10.425Z,17.82
2019-05-20T14:55:42.837Z,17.35
2019-05-20T14:58:13.808Z,14.13
2019-05-20T15:00:44.757Z,12.40
2019-05-20T15:03:15.447Z,15.25
2019-05-20T15:05:46.213Z,11.85
2019-05-20T15:08:16.860Z,14.43
2019-05-20T15:10:48.282Z,15.93
2019-05-20T15:13:19.142Z,14.33
2019-05-20T15:15:50.855Z,15.30
2019-05-20T15:18:21.527Z,15.80
2019-05-20T15:20:53.352Z,11.05
2019-05-20T15:23:23.929Z,12.50
2019-05-20T15:25:54.754Z,14.85
2019-05-20T15:28:25.512Z,12.68
2019-05-20T15:30:56.225Z,11.28
2019-05-20T15:33:26.864Z,9.68
2019-05-20T15:35:57.688Z,12.95
2019-05-20T15:38:28.222Z,14.85
2019-05-20T15:40:58.968Z,10.90
2019-05-20T15:43:29.588Z,15.98
2019-05-20T15:46:00.326Z,14.03
2019-05-20T15:48:31.160Z,11.10
2019-05-20T15:51:01.879Z,12.45
2019-05-20T15:53:33.787Z,13.10
2019-05-20T15:56:04.791Z,12.43
2019-05-20T15:58:35.504Z,9.68
2019-05-20T16:01:06.881Z,10.23
2019-05-20T16:03:37.719Z,11.75
2019-05-20T16:06:08.661Z,9.63
2019-05-20T16:08:39.484Z,9.40
2019-05-20T16:11:11.420Z,12.55
2019-05-20T16:13:42.564Z,8.58
2019-05-20T16:16:13.451Z,11.55
2019-05-20T16:18:44.478Z,12.75
2019-05-20T16:21:15.404Z,9.58
2019-05-20T16:23:46.466Z,10.50
2019-05-20T16:26:17.136Z,11.53
2019-05-20T16:28:47.881Z,10.58
2019-05-20T16:31:19.080Z,9.33
2019-05-20T16:33:49.862Z,11.55
2019-05-20T16:36:20.640Z,9.48
2019-05-20T16:38:52.260Z,15.15
2019-05-20T16:41:23.042Z,13.50
2019-05-20T16:43:54.051Z,12.82
2019-05-20T16:46:24.633Z,14.45
2019-05-20T16:48:55.526Z,17.60
2019-05-20T16:51:26.371Z,21.82
2019-05-20T16:53:57.062Z,16.20
2019-05-20T16:56:27.953Z,19.98
2019-05-20T16:58:59.722Z,13.30
2019-05-20T17:01:30.419Z,18.32
2019-05-20T17:04:01.172Z,20.30
2019-05-20T17:06:32.186Z,19.30
2019-05-20T17:09:03.931Z,20.00
2019-05-20T17:11:35.256Z,18.67
2019-05-20T17:14:06.037Z,22.77
2019-05-20T17:16:36.778Z,20.68
2019-05-20T17:19:07.607Z,26.77
2019-05-20T17:21:38.342Z,23.15
2019-05-20T17:24:08.996Z,36.48
2019-05-20T17:26:39.538Z,27.48
2019-05-20T17:29:10.337Z,31.65
2019-05-20T17:31:41.167Z,27.40
2019-05-20T17:34:11.993Z,27.58
2019-05-20T17:36:42.708Z,23.45
2019-05-20T17:39:13.772Z,24.72
2019-05-20T17:41:44.842Z,27.00
2019-05-20T17:44:15.417Z,21.68
2019-05-20T17:46:47.429Z,30.45
2019-05-20T17:49:20.303Z,21.65
2019-05-20T17:51:52.988Z,30.88
2019-05-20T17:54:25.623Z,20.85
2019-05-20T17:56:58.496Z,27.42
2019-05-20T17:59:32.037Z,22.17
2019-05-20T18:02:05.546Z,20.95
2019-05-20T18:04:36.392Z,29.92
2019-05-20T18:07:07.452Z,29.40
2019-05-20T18:09:41.684Z,33.43
2019-05-20T18:12:13.918Z,32.43
2019-05-20T18:14:47.972Z,38.05
2019-05-20T18:17:19.607Z,37.08
2019-05-20T18:19:50.849Z,31.23
2019-05-20T18:22:22.910Z,31.48
2019-05-20T18:24:53.889Z,35.70
2019-05-20T18:27:25.477Z,34.53
2019-05-20T18:29:58.456Z,34.67
2019-05-20T18:32:29.963Z,49.57
2019-05-20T18:35:01.649Z,40.90
2019-05-20T18:37:33.648Z,34.83
2019-05-20T18:40:13.843Z,39.00
2019-05-20T18:42:38.910Z,34.10
2019-05-20T18:45:10.057Z,41.03
2019-05-20T18:47:41.851Z,37.07
2019-05-20T18:50:14.154Z,38.37
2019-05-20T18:52:45.100Z,37.80
2019-05-20T18:55:16.657Z,42.43
2019-05-20T18:57:48.763Z,51.17
2019-05-20T19:00:21.307Z,48.57
2019-05-20T19:02:52.148Z,44.97
2019-05-20T19:05:24.062Z,47.93
2019-05-20T19:07:56.162Z,51.33
2019-05-20T19:10:28.434Z,38.20
2019-05-20T19:13:01.305Z,38.30
2019-05-20T19:15:32.769Z,48.30
2019-05-20T19:18:04.162Z,58.20
2019-05-20T19:20:35.985Z,52.97
2019-05-20T19:23:08.288Z,49.07
2019-05-20T19:25:39.503Z,57.13
2019-05-20T19:28:10.782Z,56.83
2019-05-20T19:30:43.189Z,52.90
2019-05-20T19:33:14.966Z,69.33
2019-05-20T19:35:45.727Z,63.93
2019-05-20T19:38:17.463Z,69.33
2019-05-20T19:40:49.567Z,60.60
2019-05-20T19:43:21.521Z,55.60
2019-05-20T19:45:53.685Z,46.23
2019-05-20T19:48:24.980Z,48.87
2019-05-20T19:50:57.543Z,51.00
2019-05-20T19:53:30.238Z,46.57
2019-05-20T19:56:05.021Z,48.97
2019-05-20T19:58:35.967Z,44.63
2019-05-20T20:01:06.946Z,44.00
2019-05-20T20:03:38.642Z,43.13
2019-05-20T20:06:12.488Z,48.60
2019-05-20T20:08:44.396Z,43.40
2019-05-20T20:11:17.983Z,48.53
2019-05-20T20:13:49.694Z,55.97
2019-05-20T20:16:20.484Z,47.47
2019-05-20T20:18:51.135Z,45.70
2019-05-20T20:21:21.778Z,54.87
2019-05-20T20:23:52.691Z,54.27
2019-05-20T20:26:23.617Z,92.80
2019-05-20T20:28:54.385Z,65.13
2019-05-20T20:31:26.108Z,79.33
2019-05-20T20:33:57.230Z,147.27
2019-05-20T20:36:27.982Z,92.27
2019-05-20T20:38:58.632Z,105.37
2019-05-20T20:41:30.188Z,111.70
2019-05-20T20:44:00.971Z,71.10
2019-05-20T20:46:31.645Z,71.97
2019-05-20T20:49:02.240Z,93.87
2019-05-20T20:51:32.821Z,93.00
2019-05-20T20:54:03.419Z,146.70
2019-05-20T20:56:34.354Z,101.27
2019-05-20T20:59:04.996Z,123.27
2019-05-20T21:01:35.554Z,116.47
2019-05-20T21:04:07.472Z,117.87
2019-05-20T21:06:37.948Z,102.00
2019-05-20T21:09:08.757Z,117.47
2019-05-20T21:11:39.818Z,111.97
2019-05-20T21:14:10.510Z,123.90
2019-05-20T21:16:41.077Z,142.30
2019-05-20T21:19:11.669Z,100.10
2019-05-20T21:21:42.416Z,113.37
2019-05-20T21:24:13.057Z,103.57
2019-05-20T21:26:43.618Z,113.03
2019-05-20T21:29:14.183Z,151.97
2019-05-20T21:31:45.588Z,121.47
2019-05-20T21:34:15.969Z,147.20
2019-05-20T21:36:48.071Z,122.23
2019-05-20T21:39:18.683Z,89.73
2019-05-20T21:41:50.707Z,129.70
2019-05-20T21:44:21.143Z,116.73
2019-05-20T21:46:51.608Z,159.63
2019-05-20T21:49:22.067Z,135.37
2019-05-20T21:51:52.645Z,173.33
2019-05-20T21:54:23.090Z,116.63
2019-05-20T21:56:53.492Z,98.63
2019-05-20T21:59:23.868Z,100.97
2019-05-20T22:01:54.472Z,133.43
2019-05-20T22:04:24.967Z,103.93
2019-05-20T22:06:55.880Z,107.83
2019-05-20T22:09:26.317Z,105.50
2019-05-20T22:11:56.879Z,102.63
2019-05-20T22:14:27.349Z,92.27
2019-05-20T22:16:57.836Z,116.50
2019-05-20T22:19:28.447Z,110.37
2019-05-20T22:22:12.457Z,109.27
2019-05-20T22:24:43.168Z,105.97
2019-05-20T22:27:13.783Z,88.93
2019-05-20T22:29:44.441Z,89.10
2019-05-20T22:32:16.107Z,94.37
2019-05-20T22:34:53.769Z,95.63
2019-05-20T22:37:19.046Z,99.07
2019-05-20T22:39:49.689Z,81.40
2019-05-20T22:42:20.814Z,70.20
2019-05-20T22:44:51.348Z,75.07
2019-05-20T22:47:21.879Z,104.50
2019-05-20T22:49:52.565Z,96.10
2019-05-20T22:52:24.281Z,75.93
2019-05-20T22:54:54.823Z,84.57
2019-05-20T22:57:25.537Z,86.77
2019-05-20T22:59:56.002Z,84.97
2019-05-20T23:02:26.746Z,84.23
2019-05-20T23:04:57.262Z,94.13
2019-05-20T23:07:27.930Z,78.63
2019-05-20T23:09:58.448Z,74.03
2019-05-20T23:12:29.071Z,70.93
2019-05-20T23:14:59.517Z,93.73
2019-05-20T23:17:30.122Z,71.33
2019-05-20T23:20:00.647Z,81.60
2019-05-20T23:22:31.482Z,84.13
2019-05-20T23:25:02.099Z,74.70
2019-05-20T23:27:32.642Z,97.30
2019-05-20T23:30:03.240Z,104.03
2019-05-20T23:32:34.062Z,101.03
2019-05-20T23:35:05.112Z,99.67
2019-05-20T23:37:35.889Z,104.87
2019-05-20T23:40:06.539Z,121.70
2019-05-20T23:42:37.672Z,135.93
2019-05-20T23:45:09.339Z,114.40
2019-05-20T23:47:40.053Z,142.30
2019-05-20T23:50:10.823Z,112.83
2019-05-20T23:52:41.433Z,97.53
2019-05-20T23:55:13.523Z,108.87
2019-05-20T23:57:44.224Z,104.17
